createdAt,value
2019-04-14T00:02:01.301Z,29.40
2019-04-14T00:04:35.456Z,27.10
2019-04-14T00:07:04.236Z,27.67
2019-04-14T00:09:33.748Z,28.37
2019-04-14T00:12:05.854Z,27.83
2019-04-14T00:14:33.722Z,26.43
2019-04-14T00:17:02.612Z,26.53
2019-04-14T00:19:31.348Z,27.30
2019-04-14T00:22:00.941Z,24.93
2019-04-14T00:24:29.724Z,26.23
2019-04-14T00:26:59.468Z,25.73
2019-04-14T00:29:28.492Z,27.03
2019-04-14T00:31:57.198Z,26.73
2019-04-14T00:34:44.186Z,30.37
2019-04-14T00:37:38.176Z,26.57
2019-04-14T00:40:19.328Z,24.23
2019-04-14T00:43:03.306Z,27.77
2019-04-14T00:45:42.657Z,27.87
2019-04-14T00:48:13.117Z,28.90
2019-04-14T00:50:40.912Z,31.63
2019-04-14T00:53:09.894Z,25.63
2019-04-14T00:55:38.582Z,29.10
2019-04-14T00:58:08.161Z,27.83
2019-04-14T01:00:36.991Z,32.17
2019-04-14T01:03:06.847Z,29.00
2019-04-14T01:05:36.456Z,25.73
2019-04-14T01:08:07.276Z,25.03
2019-04-14T01:10:36.823Z,28.57
2019-04-14T01:13:08.437Z,26.80
2019-04-14T01:15:48.099Z,25.73
2019-04-14T01:18:07.812Z,26.50
2019-04-14T01:20:36.682Z,27.57
2019-04-14T01:23:06.371Z,26.13
2019-04-14T01:25:35.353Z,27.93
2019-04-14T01:28:04.664Z,25.47
2019-04-14T01:30:33.581Z,27.13
2019-04-14T01:33:03.259Z,25.37
2019-04-14T01:35:33.438Z,28.50
2019-04-14T01:38:02.274Z,31.97
2019-04-14T01:40:31.452Z,29.43
2019-04-14T01:43:01.580Z,28.13
2019-04-14T01:45:30.342Z,25.97
2019-04-14T01:47:59.561Z,28.03
2019-04-14T01:50:41.510Z,28.50
2019-04-14T01:53:18.804Z,29.23
2019-04-14T01:56:18.881Z,30.23
2019-04-14T01:58:51.214Z,30.93
2019-04-14T02:01:26.107Z,28.50
2019-04-14T02:03:54.823Z,29.13
2019-04-14T02:06:24.597Z,29.67
2019-04-14T02:08:54.574Z,28.57
2019-04-14T02:11:24.772Z,29.60
2019-04-14T02:13:54.969Z,28.57
2019-04-14T02:16:32.990Z,29.53
2019-04-14T02:18:55.766Z,33.27
2019-04-14T02:21:25.871Z,31.03
2019-04-14T02:23:56.038Z,29.27
2019-04-14T02:26:26.168Z,28.90
2019-04-14T02:28:55.129Z,30.00
2019-04-14T02:31:43.363Z,27.03
2019-04-14T02:34:32.114Z,27.93
2019-04-14T02:39:35.943Z,29.80
2019-04-14T02:41:56.751Z,29.47
2019-04-14T02:44:24.225Z,30.23
2019-04-14T02:46:59.993Z,28.50
2019-04-14T02:49:27.205Z,29.30
2019-04-14T02:56:58.394Z,30.33
2019-04-14T02:59:22.350Z,32.83
2019-04-14T03:02:11.961Z,28.27
2019-04-14T03:04:27.662Z,31.70
2019-04-14T03:07:02.298Z,31.07
2019-04-14T03:11:51.879Z,31.33
2019-04-14T03:14:37.346Z,31.43
2019-04-14T03:17:25.384Z,29.70
2019-04-14T03:20:20.690Z,32.10
2019-04-14T03:23:13.282Z,30.17
2019-04-14T03:25:33.979Z,30.93
2019-04-14T03:31:28.320Z,31.73
2019-04-14T03:38:40.772Z,31.57
2019-04-14T03:41:17.421Z,29.97
2019-04-14T03:46:18.020Z,31.33
2019-04-14T03:51:11.542Z,29.77
2019-04-14T03:53:32.102Z,29.77
2019-04-14T03:56:05.757Z,31.80
2019-04-14T03:58:32.057Z,29.60
2019-04-14T04:01:01.800Z,29.57
2019-04-14T04:03:30.941Z,34.03
2019-04-14T04:06:00.679Z,29.80
2019-04-14T04:08:29.626Z,31.90
2019-04-14T04:10:59.797Z,29.93
2019-04-14T04:13:28.637Z,31.57
2019-04-14T04:16:11.890Z,32.37
2019-04-14T04:18:50.877Z,29.53
2019-04-14T04:21:21.349Z,31.13
2019-04-14T04:24:00.249Z,30.73
2019-04-14T04:26:58.138Z,26.93
2019-04-14T04:29:48.757Z,29.93
2019-04-14T04:32:40.410Z,30.17
2019-04-14T04:35:17.510Z,30.90
2019-04-14T04:37:54.079Z,32.73
2019-04-14T04:40:26.838Z,32.67
2019-04-14T04:42:56.844Z,31.67
2019-04-14T04:45:25.738Z,34.00
2019-04-14T04:47:55.543Z,34.13
2019-04-14T04:50:24.494Z,32.47
2019-04-14T04:52:54.018Z,35.40
2019-04-14T04:55:24.086Z,35.70
2019-04-14T04:57:52.967Z,35.63
2019-04-14T05:00:22.184Z,36.27
2019-04-14T05:02:51.054Z,37.50
2019-04-14T05:05:38.463Z,37.30
2019-04-14T05:08:07.213Z,36.30
2019-04-14T05:10:41.544Z,34.87
2019-04-14T05:13:14.206Z,35.00
2019-04-14T05:15:53.190Z,38.47
2019-04-14T05:18:24.705Z,38.33
2019-04-14T05:20:53.634Z,36.27
2019-04-14T05:23:23.336Z,38.43
2019-04-14T05:25:52.248Z,39.00
2019-04-14T05:28:21.965Z,41.57
2019-04-14T05:30:50.863Z,38.23
2019-04-14T05:33:20.626Z,40.13
2019-04-14T05:35:49.449Z,38.50
2019-04-14T05:38:19.079Z,40.53
2019-04-14T05:40:47.877Z,38.07
2019-04-14T05:43:28.163Z,42.83
2019-04-14T05:45:48.007Z,35.00
2019-04-14T05:48:17.122Z,40.43
2019-04-14T05:50:46.943Z,40.73
2019-04-14T05:53:15.630Z,38.83
2019-04-14T05:55:44.360Z,39.47
2019-04-14T05:58:14.220Z,38.80
2019-04-14T06:00:46.421Z,37.67
2019-04-14T06:03:16.659Z,38.33
2019-04-14T06:05:45.473Z,40.53
2019-04-14T06:08:14.194Z,34.83
2019-04-14T06:10:42.884Z,35.17
2019-04-14T06:13:11.881Z,35.90
2019-04-14T06:15:40.834Z,37.97
2019-04-14T06:18:09.595Z,36.90
2019-04-14T06:20:38.311Z,34.77
2019-04-14T06:23:07.361Z,43.93
2019-04-14T06:25:36.466Z,39.40
2019-04-14T06:28:05.378Z,41.03
2019-04-14T06:30:49.915Z,38.77
2019-04-14T06:33:43.734Z,37.23
2019-04-14T06:36:31.491Z,38.63
2019-04-14T06:39:09.087Z,38.40
2019-04-14T06:41:37.804Z,37.20
2019-04-14T06:44:08.338Z,36.80
2019-04-14T06:46:37.063Z,38.10
2019-04-14T06:49:05.845Z,35.80
2019-04-14T06:51:34.532Z,37.53
2019-04-14T06:54:03.226Z,37.37
2019-04-14T06:56:31.955Z,37.20
2019-04-14T06:59:00.672Z,35.50
2019-04-14T07:01:29.382Z,35.40
2019-04-14T07:03:58.108Z,35.53
2019-04-14T07:06:26.806Z,33.40
2019-04-14T07:08:55.843Z,31.97
2019-04-14T07:11:24.588Z,33.17
2019-04-14T07:13:53.361Z,33.33
2019-04-14T07:16:22.118Z,35.37
2019-04-14T07:18:50.822Z,33.87
2019-04-14T07:21:19.529Z,33.83
2019-04-14T07:23:48.286Z,32.33
2019-04-14T07:26:17.022Z,33.80
2019-04-14T07:28:56.193Z,33.00
2019-04-14T07:31:50.706Z,32.67
2019-04-14T07:34:42.406Z,35.80
2019-04-14T07:37:30.142Z,31.67
2019-04-14T07:40:17.912Z,31.93
2019-04-14T07:43:06.689Z,31.33
2019-04-14T07:46:03.941Z,31.53
2019-04-14T07:48:40.915Z,29.93
2019-04-14T07:51:21.761Z,31.77
2019-04-14T07:53:57.222Z,28.83
2019-04-14T07:56:57.124Z,28.23
2019-04-14T07:59:36.254Z,30.03
2019-04-14T08:02:33.151Z,27.43
2019-04-14T08:05:05.028Z,26.13
2019-04-14T08:07:33.857Z,23.53
2019-04-14T08:10:02.610Z,25.10
2019-04-14T08:12:31.395Z,25.48
2019-04-14T08:15:00.246Z,23.73
2019-04-14T08:17:28.991Z,22.67
2019-04-14T08:19:57.711Z,22.00
2019-04-14T08:22:26.599Z,19.97
2019-04-14T08:24:55.351Z,21.27
2019-04-14T08:27:24.204Z,22.03
2019-04-14T08:29:53.008Z,22.10
2019-04-14T08:32:21.771Z,21.13
2019-04-14T08:34:50.558Z,20.03
2019-04-14T08:37:19.355Z,18.80
2019-04-14T08:39:48.106Z,21.90
2019-04-14T08:42:41.959Z,21.37
2019-04-14T08:45:29.706Z,19.93
2019-04-14T08:48:29.957Z,22.67
2019-04-14T08:51:09.485Z,21.07
2019-04-14T08:53:56.502Z,22.93
2019-04-14T08:56:37.631Z,20.50
2019-04-14T08:59:17.251Z,23.23
2019-04-14T09:02:04.043Z,20.97
2019-04-14T09:04:47.556Z,22.30
2019-04-14T09:07:54.172Z,20.93
2019-04-14T09:10:26.665Z,22.33
2019-04-14T09:12:57.482Z,19.50
2019-04-14T09:15:26.755Z,19.60
2019-04-14T09:17:56.046Z,20.57
2019-04-14T09:20:25.324Z,19.10
2019-04-14T09:22:54.677Z,19.60
2019-04-14T09:25:23.962Z,18.90
2019-04-14T09:27:53.443Z,20.73
2019-04-14T09:30:22.829Z,18.20
2019-04-14T09:32:52.103Z,19.27
2019-04-14T09:35:21.420Z,17.65
2019-04-14T09:37:50.759Z,18.33
2019-04-14T09:40:20.091Z,18.10
2019-04-14T09:42:49.439Z,17.67
2019-04-14T09:45:18.763Z,19.47
2019-04-14T09:47:48.200Z,20.40
2019-04-14T09:50:17.656Z,20.20
2019-04-14T09:52:46.987Z,17.00
2019-04-14T09:55:16.612Z,18.17
2019-04-14T09:57:45.933Z,19.73
2019-04-14T10:00:16.258Z,16.93
2019-04-14T10:02:45.643Z,15.50
2019-04-14T10:05:14.927Z,18.67
2019-04-14T10:07:44.204Z,18.70
2019-04-14T10:10:13.601Z,14.80
2019-04-14T10:12:42.991Z,15.27
2019-04-14T10:15:12.296Z,14.27
2019-04-14T10:17:41.660Z,15.93
2019-04-14T10:20:11.077Z,15.78
2019-04-14T10:22:40.351Z,13.50
2019-04-14T10:25:09.665Z,16.80
2019-04-14T10:27:39.182Z,13.77
2019-04-14T10:30:09.288Z,14.53
2019-04-14T10:32:38.596Z,13.53
2019-04-14T10:35:07.918Z,15.07
2019-04-14T10:37:37.238Z,15.80
2019-04-14T10:40:06.779Z,16.20
2019-04-14T10:42:36.091Z,13.53
2019-04-14T10:45:06.039Z,14.37
2019-04-14T10:47:35.386Z,12.37
2019-04-14T10:50:05.221Z,13.40
2019-04-14T10:52:34.599Z,14.13
2019-04-14T10:55:04.179Z,13.93
2019-04-14T10:57:33.504Z,15.10
2019-04-14T11:00:03.156Z,13.83
2019-04-14T11:02:32.540Z,14.20
2019-04-14T11:05:01.901Z,13.67
2019-04-14T11:07:31.913Z,15.20
2019-04-14T11:10:01.241Z,14.70
2019-04-14T11:12:30.631Z,14.87
2019-04-14T11:15:00.027Z,12.90
2019-04-14T11:17:29.326Z,13.37
2019-04-14T11:19:58.614Z,14.17
2019-04-14T11:22:27.991Z,14.93
2019-04-14T11:24:57.295Z,13.03
2019-04-14T11:27:26.699Z,13.17
2019-04-14T11:29:56.088Z,13.30
2019-04-14T11:32:44.371Z,13.57
2019-04-14T11:35:18.836Z,13.33
2019-04-14T11:38:01.846Z,13.83
2019-04-14T11:40:34.878Z,13.53
2019-04-14T11:43:04.387Z,13.57
2019-04-14T11:45:33.674Z,13.30
2019-04-14T11:48:03.047Z,15.70
2019-04-14T11:50:32.654Z,14.00
2019-04-14T11:53:01.979Z,15.23
2019-04-14T11:55:31.310Z,15.43
2019-04-14T11:58:00.626Z,14.53
2019-04-14T12:00:52.142Z,13.70
2019-04-14T12:03:32.440Z,13.57
2019-04-14T12:06:23.631Z,14.37
2019-04-14T12:08:58.180Z,14.40
2019-04-14T12:11:27.481Z,17.83
2019-04-14T12:13:56.811Z,13.77
2019-04-14T12:16:26.108Z,13.20
2019-04-14T12:18:55.542Z,13.63
2019-04-14T12:21:24.830Z,13.13
2019-04-14T12:23:54.146Z,13.07
2019-04-14T12:26:23.455Z,14.03
2019-04-14T12:28:53.696Z,13.97
2019-04-14T12:31:24.220Z,13.77
2019-04-14T12:33:53.535Z,13.10
2019-04-14T12:36:22.938Z,13.17
2019-04-14T12:38:52.216Z,13.77
2019-04-14T12:41:26.825Z,12.77
2019-04-14T12:44:10.013Z,13.17
2019-04-14T12:47:40.099Z,13.97
2019-04-14T12:50:15.822Z,12.53
2019-04-14T12:52:45.182Z,12.27
2019-04-14T12:55:14.702Z,11.67
2019-04-14T12:57:52.021Z,15.07
2019-04-14T13:00:26.773Z,13.30
2019-04-14T13:02:56.106Z,11.63
2019-04-14T13:05:25.439Z,11.20
2019-04-14T13:07:54.716Z,11.93
2019-04-14T13:10:23.998Z,10.93
2019-04-14T13:12:53.445Z,12.60
2019-04-14T13:15:22.842Z,12.47
2019-04-14T13:17:52.156Z,14.63
2019-04-14T13:20:21.468Z,11.87
2019-04-14T13:22:50.779Z,13.27
2019-04-14T13:25:20.071Z,13.73
2019-04-14T13:27:50.506Z,11.40
2019-04-14T13:30:24.397Z,10.63
2019-04-14T13:32:53.724Z,11.50
2019-04-14T13:35:23.078Z,12.70
2019-04-14T13:37:52.702Z,10.90
2019-04-14T13:40:22.119Z,11.33
2019-04-14T13:42:51.400Z,11.30
2019-04-14T13:45:20.710Z,11.07
2019-04-14T13:47:50.037Z,11.47
2019-04-14T13:50:19.603Z,11.13
2019-04-14T13:52:48.911Z,11.50
2019-04-14T13:55:18.435Z,10.60
2019-04-14T13:57:47.968Z,11.33
2019-04-14T14:00:18.001Z,11.00
2019-04-14T14:02:47.342Z,10.97
2019-04-14T14:05:16.818Z,10.23
2019-04-14T14:07:46.126Z,9.77
2019-04-14T14:10:15.794Z,10.33
2019-04-14T14:12:58.280Z,11.07
2019-04-14T14:15:53.241Z,11.03
2019-04-14T14:18:40.485Z,10.50
2019-04-14T14:21:28.797Z,10.30
2019-04-14T14:24:14.370Z,10.43
2019-04-14T14:26:44.346Z,11.27
2019-04-14T14:29:13.717Z,13.00
2019-04-14T14:31:43.013Z,12.20
2019-04-14T14:34:12.393Z,10.93
2019-04-14T14:36:41.676Z,10.33
2019-04-14T14:39:11.059Z,11.33
2019-04-14T14:41:40.432Z,10.60
2019-04-14T14:44:09.734Z,10.67
2019-04-14T14:46:57.132Z,11.63
2019-04-14T14:49:48.744Z,10.63
2019-04-14T14:52:19.579Z,11.90
2019-04-14T14:54:48.979Z,10.77
2019-04-14T14:57:18.284Z,10.40
2019-04-14T14:59:47.599Z,10.67
2019-04-14T15:02:16.987Z,10.03
2019-04-14T15:04:46.311Z,9.63
2019-04-14T15:07:15.630Z,11.60
2019-04-14T15:09:44.967Z,9.07
2019-04-14T15:12:14.392Z,11.60
2019-04-14T15:14:43.705Z,10.47
2019-04-14T15:17:13.160Z,10.30
2019-04-14T15:19:42.545Z,11.23
2019-04-14T15:22:12.038Z,10.93
2019-04-14T15:24:41.343Z,11.30
2019-04-14T15:27:10.741Z,10.47
2019-04-14T15:29:40.257Z,9.90
2019-04-14T15:32:09.610Z,10.97
2019-04-14T15:34:39.014Z,9.83
2019-04-14T15:37:08.548Z,10.23
2019-04-14T15:39:37.925Z,9.93
2019-04-14T15:42:07.260Z,10.70
2019-04-14T15:44:36.610Z,11.60
2019-04-14T15:47:05.976Z,12.30
2019-04-14T15:49:35.436Z,10.00
2019-04-14T15:52:04.867Z,10.80
2019-04-14T15:54:34.558Z,11.93
2019-04-14T15:57:22.943Z,11.90
2019-04-14T16:00:05.543Z,13.13
2019-04-14T16:02:53.928Z,12.30
2019-04-14T16:05:31.433Z,13.17
2019-04-14T16:08:08.696Z,11.13
2019-04-14T16:10:57.113Z,11.13
2019-04-14T16:13:58.011Z,12.77
2019-04-14T16:16:45.491Z,12.83
2019-04-14T16:19:32.880Z,10.17
2019-04-14T16:22:02.262Z,10.17
2019-04-14T16:24:31.622Z,11.43
2019-04-14T16:27:23.006Z,10.80
2019-04-14T16:29:58.897Z,11.27
2019-04-14T16:32:49.965Z,11.90
2019-04-14T16:35:22.137Z,13.17
2019-04-14T16:37:51.495Z,11.20
2019-04-14T16:40:20.918Z,10.73
2019-04-14T16:42:50.203Z,11.13
2019-04-14T16:45:19.605Z,11.77
2019-04-14T16:47:48.889Z,14.00
2019-04-14T16:50:18.369Z,10.87
2019-04-14T16:52:57.902Z,12.13
2019-04-14T16:55:58.773Z,12.37
2019-04-14T16:58:37.501Z,10.03
2019-04-14T17:01:10.074Z,12.30
2019-04-14T17:03:39.348Z,10.97
2019-04-14T17:06:08.675Z,11.68
2019-04-14T17:08:38.072Z,11.77
2019-04-14T17:11:07.435Z,12.53
2019-04-14T17:13:39.800Z,12.63
2019-04-14T17:16:24.187Z,13.80
2019-04-14T17:19:18.594Z,12.33
2019-04-14T17:22:25.079Z,12.63
2019-04-14T17:25:07.157Z,14.97
2019-04-14T17:27:54.132Z,12.80
2019-04-14T17:30:34.513Z,15.03
2019-04-14T17:33:18.543Z,13.00
2019-04-14T17:36:12.622Z,16.13
2019-04-14T17:39:05.766Z,12.43
2019-04-14T17:42:00.550Z,12.10
2019-04-14T17:45:03.962Z,13.00
2019-04-14T17:47:50.831Z,13.63
2019-04-14T17:50:42.745Z,12.37
2019-04-14T17:53:20.949Z,11.97
2019-04-14T17:56:09.192Z,12.37
2019-04-14T17:59:00.763Z,14.57
2019-04-14T18:01:51.892Z,12.70
2019-04-14T18:04:29.017Z,13.60
2019-04-14T18:07:32.916Z,13.50
2019-04-14T18:10:20.040Z,12.97
2019-04-14T18:13:09.438Z,13.30
2019-04-14T18:15:44.757Z,13.40
2019-04-14T18:18:27.446Z,14.00
2019-04-14T18:20:59.411Z,15.43
2019-04-14T18:23:28.785Z,12.17
2019-04-14T18:25:58.117Z,12.57
2019-04-14T18:28:37.990Z,15.27
2019-04-14T18:31:14.292Z,13.13
2019-04-14T18:34:17.871Z,13.97
2019-04-14T18:37:06.200Z,12.80
2019-04-14T18:39:57.280Z,12.57
2019-04-14T18:42:44.209Z,12.43
2019-04-14T18:45:39.131Z,14.10
2019-04-14T18:48:33.554Z,16.03
2019-04-14T18:51:23.153Z,15.00
2019-04-14T18:53:58.354Z,12.90
2019-04-14T18:56:46.882Z,13.43
2019-04-14T18:59:29.511Z,13.13
2019-04-14T19:01:59.510Z,12.60
2019-04-14T19:04:29.319Z,14.93
2019-04-14T19:06:59.237Z,12.53
2019-04-14T19:09:29.056Z,13.93
2019-04-14T19:12:24.072Z,12.37
2019-04-14T19:14:59.839Z,14.00
2019-04-14T19:17:40.047Z,13.23
2019-04-14T19:20:10.968Z,12.77
2019-04-14T19:22:40.633Z,14.70
2019-04-14T19:25:10.081Z,13.80
2019-04-14T19:27:39.614Z,11.00
2019-04-14T19:30:09.370Z,10.67
2019-04-14T19:32:39.006Z,13.70
2019-04-14T19:35:08.337Z,13.17
2019-04-14T19:37:38.049Z,11.83
2019-04-14T19:40:07.942Z,11.43
2019-04-14T19:42:37.256Z,13.57
2019-04-14T19:45:07.860Z,11.63
2019-04-14T19:47:37.320Z,13.63
2019-04-14T19:50:08.501Z,12.53
2019-04-14T19:52:37.858Z,12.07
2019-04-14T19:55:19.506Z,13.43
2019-04-14T19:57:39.975Z,12.03
2019-04-14T20:00:09.712Z,12.23
2019-04-14T20:02:39.208Z,11.57
2019-04-14T20:05:08.784Z,12.30
2019-04-14T20:07:38.183Z,11.80
2019-04-14T20:10:09.171Z,11.03
2019-04-14T20:12:38.541Z,10.97
2019-04-14T20:15:10.192Z,10.67
2019-04-14T20:17:53.681Z,11.00
2019-04-14T20:20:35.723Z,10.80
2019-04-14T20:23:26.748Z,11.47
2019-04-14T20:26:13.739Z,13.50
2019-04-14T20:28:46.604Z,12.33
2019-04-14T20:31:40.354Z,10.70
2019-04-14T20:34:09.224Z,10.73
2019-04-14T20:36:37.955Z,10.10
2019-04-14T20:39:08.611Z,11.63
2019-04-14T20:41:37.354Z,10.53
2019-04-14T20:44:06.155Z,11.37
2019-04-14T20:46:34.967Z,12.30
2019-04-14T20:49:03.737Z,11.13
2019-04-14T20:51:32.796Z,10.53
2019-04-14T20:54:01.538Z,11.37
2019-04-14T20:56:30.267Z,10.93
2019-04-14T20:58:59.459Z,12.30
2019-04-14T21:01:30.404Z,11.97
2019-04-14T21:04:27.391Z,10.30
2019-04-14T21:07:14.161Z,12.17
2019-04-14T21:09:47.449Z,10.57
2019-04-14T21:12:30.185Z,10.73
2019-04-14T21:15:16.953Z,11.50
2019-04-14T21:18:17.151Z,10.07
2019-04-14T21:20:55.651Z,11.33
2019-04-14T21:23:38.942Z,9.93
2019-04-14T21:26:15.687Z,10.77
2019-04-14T21:29:09.350Z,12.30
2019-04-14T21:31:46.156Z,11.07
2019-04-14T21:34:20.982Z,10.87
2019-04-14T21:37:08.860Z,12.30
2019-04-14T21:39:50.777Z,11.03
2019-04-14T21:42:19.924Z,11.63
2019-04-14T21:44:48.861Z,12.87
2019-04-14T21:47:17.612Z,11.60
2019-04-14T21:49:46.380Z,11.37
2019-04-14T21:52:25.138Z,13.13
2019-04-14T21:54:53.894Z,14.73
2019-04-14T21:57:47.626Z,11.90
2019-04-14T22:00:34.296Z,10.73
2019-04-14T22:03:34.893Z,12.10
2019-04-14T22:06:10.382Z,11.10
2019-04-14T22:08:44.150Z,12.63
2019-04-14T22:11:17.879Z,12.03
2019-04-14T22:13:46.642Z,16.67
2019-04-14T22:16:15.394Z,14.23
2019-04-14T22:18:44.110Z,11.87
2019-04-14T22:21:12.871Z,11.43
2019-04-14T22:23:41.602Z,14.90
2019-04-14T22:26:10.359Z,11.57
2019-04-14T22:28:39.215Z,11.67
2019-04-14T22:31:07.928Z,12.00
2019-04-14T22:33:36.677Z,11.67
2019-04-14T22:36:05.854Z,12.27
2019-04-14T22:38:34.588Z,13.27
2019-04-14T22:41:03.926Z,12.67
2019-04-14T22:43:32.653Z,12.73
2019-04-14T22:46:01.409Z,12.50
2019-04-14T22:48:30.144Z,13.17
2019-04-14T22:50:58.902Z,13.77
2019-04-14T22:53:27.630Z,12.07
2019-04-14T22:55:56.395Z,12.10
2019-04-14T22:58:25.161Z,13.27
2019-04-14T23:01:13.103Z,12.53
2019-04-14T23:03:59.926Z,12.83
2019-04-14T23:06:46.663Z,13.47
2019-04-14T23:09:40.503Z,13.53
2019-04-14T23:12:29.380Z,12.77
2019-04-14T23:15:29.483Z,14.23
2019-04-14T23:18:20.074Z,14.87
2019-04-14T23:21:07.934Z,13.43
2019-04-14T23:23:55.127Z,15.80
2019-04-14T23:26:23.874Z,14.60
2019-04-14T23:28:52.606Z,13.80
2019-04-14T23:31:21.325Z,14.73
2019-04-14T23:33:50.064Z,14.10
2019-04-14T23:36:18.779Z,14.20
2019-04-14T23:38:47.477Z,14.90
2019-04-14T23:41:16.213Z,14.03
2019-04-14T23:43:44.929Z,17.53
2019-04-14T23:46:13.667Z,15.23
2019-04-14T23:48:42.427Z,14.63
2019-04-14T23:51:11.240Z,13.23
2019-04-14T23:53:39.949Z,15.27
2019-04-14T23:56:08.687Z,15.17
2019-04-14T23:58:37.438Z,18.02
